Time;durP1;ratioP1;P1;durP2;ratioP2;P2;SDS_P1;SDS_P2;PMS_P1;PMS_P2;Temp;Humidity;BMP_temperature;BMP_pressure;BME280_temperature;BME280_humidity;BME280_pressure;Samples;Min_cycle;Max_cycle;Signal;HPM_P1;HPM_P2
2022/09/06 00:00:25;;;;;;;;;;;22.60;93.20;;;;;;5068053;28;20010;-48
2022/09/06 00:02:50;;;;;;;;;;;22.60;93.20;;;;;;5070021;28;19927;-50
2022/09/06 00:05:16;;;;;;;;;;;22.50;93.70;;;;;;5069527;28;19920;-49
2022/09/06 00:07:42;;;;;;;;;;;22.50;94.20;;;;;;5069704;28;19968;-49
2022/09/06 00:10:08;;;;;;;;;;;22.40;94.60;;;;;;5069249;28;20003;-51
2022/09/06 00:12:34;;;;;;;;;;;22.40;95.00;;;;;;5069637;28;20026;-48
2022/09/06 00:14:59;;;;;;;;;;;22.30;95.30;;;;;;5069538;28;20390;-48
2022/09/06 00:17:25;;;;;;;;;;;22.20;95.70;;;;;;5068230;28;19924;-48
2022/09/06 00:19:51;;;;;;;;;;;22.20;95.80;;;;;;5069675;28;19916;-50
2022/09/06 00:22:16;;;;;;;;;;;22.10;96.20;;;;;;5069451;28;20355;-49
2022/09/06 00:24:42;;;;;;;;;;;22.10;96.20;;;;;;5069524;28;19916;-47
2022/09/06 00:27:07;;;;;;;;;;;22.00;96.40;;;;;;5067252;28;19920;-47
2022/09/06 00:29:33;;;;;;;;;;;22.00;96.30;;;;;;5069550;28;20007;-49
2022/09/06 00:31:59;;;;;;;;;;;22.00;96.60;;;;;;5069534;28;19920;-48
2022/09/06 00:34:25;;;;;;;;;;;22.00;96.60;;;;;;5069016;28;19924;-48
2022/09/06 00:36:51;;;;;;;;;;;21.90;97.10;;;;;;5069287;28;20022;-48
2022/09/06 00:39:16;;;;;;;;;;;21.70;97.00;;;;;;5069715;28;20010;-48
2022/09/06 00:41:42;;;;;;;;;;;21.80;97.20;;;;;;5069189;28;19924;-48
2022/09/06 00:44:08;;;;;;;;;;;21.70;97.20;;;;;;5069355;28;19968;-49
2022/09/06 00:46:34;;;;;;;;;;;21.80;97.50;;;;;;5070664;28;19927;-49
2022/09/06 00:49:23;;;;;;;;;;;21.70;97.60;;;;;;5072865;28;19928;-48
2022/09/06 00:51:50;;;;;;;;;;;21.80;97.60;;;;;;5073340;28;19920;-50
2022/09/06 00:54:16;;;;;;;;;;;21.80;97.40;;;;;;5071681;28;19956;-47
2022/09/06 00:56:42;;;;;;;;;;;21.80;97.70;;;;;;5070662;28;20395;-48
2022/09/06 00:59:08;;;;;;;;;;;21.70;98.00;;;;;;5072595;28;19924;-49
2022/09/06 01:01:33;;;;;;;;;;;21.70;98.20;;;;;;5073029;28;20447;-51
2022/09/06 01:04:00;;;;;;;;;;;21.70;98.80;;;;;;5072888;28;20003;-48
2022/09/06 01:06:32;;;;;;;;;;;21.60;99.60;;;;;;5072669;28;20363;-48
2022/09/06 01:09:03;;;;;;;;;;;21.60;99.80;;;;;;5072820;28;19928;-49
2022/09/06 01:11:53;;;;;;;;;;;21.40;99.90;;;;;;5072702;28;19923;-47
2022/09/06 01:14:18;;;;;;;;;;;21.40;99.90;;;;;;5072879;28;19948;-49
2022/09/06 01:16:49;;;;;;;;;;;21.20;99.90;;;;;;5072251;28;20010;-49
2022/09/06 01:19:29;;;;;;;;;;;21.20;99.90;;;;;;5072304;28;19920;-49
2022/09/06 01:22:07;;;;;;;;;;;21.20;99.90;;;;;;5072993;28;19994;-50
2022/09/06 01:24:58;;;;;;;;;;;21.10;99.90;;;;;;5072524;28;19920;-49
2022/09/06 01:27:32;;;;;;;;;;;21.10;99.90;;;;;;5071762;28;19916;-49
2022/09/06 01:30:06;;;;;;;;;;;21.10;99.90;;;;;;5072157;28;20326;-50
2022/09/06 01:32:36;;;;;;;;;;;21.00;99.90;;;;;;5072297;28;19916;-48
2022/09/06 01:35:05;;;;;;;;;;;21.30;99.90;;;;;;5072294;28;20368;-48
2022/09/06 01:37:30;;;;;;;;;;;20.90;99.90;;;;;;5072055;28;19920;-50
2022/09/06 01:39:56;;;;;;;;;;;20.80;99.90;;;;;;5071679;28;19970;-48
2022/09/06 01:42:24;;;;;;;;;;;20.80;99.90;;;;;;5072167;28;19924;-48
2022/09/06 01:44:52;;;;;;;;;;;20.80;99.90;;;;;;5072698;28;19928;-49
2022/09/06 01:47:34;;;;;;;;;;;20.80;99.90;;;;;;5071526;28;19924;-46
2022/09/06 01:50:15;;;;;;;;;;;20.80;99.90;;;;;;5071787;28;20433;-50
2022/09/06 01:52:53;;;;;;;;;;;20.90;99.90;;;;;;5071848;28;20022;-50
2022/09/06 01:55:37;;;;;;;;;;;20.90;99.90;;;;;;5071973;28;19928;-51
2022/09/06 01:58:03;;;;;;;;;;;20.90;99.90;;;;;;5070880;28;20260;-50
2022/09/06 02:00:29;;;;;;;;;;;20.90;99.90;;;;;;5071638;28;19932;-48
2022/09/06 02:02:57;;;;;;;;;;;20.80;99.90;;;;;;5072029;28;19924;-49
2022/09/06 02:05:27;;;;;;;;;;;20.80;99.90;;;;;;5071818;28;20006;-48
2022/09/06 02:07:55;;;;;;;;;;;20.90;99.90;;;;;;5071241;28;19940;-46
2022/09/06 02:10:30;;;;;;;;;;;20.60;99.90;;;;;;5071461;28;19970;-48
2022/09/06 02:12:58;;;;;;;;;;;20.90;99.90;;;;;;5071638;28;19916;-48
2022/09/06 02:15:25;;;;;;;;;;;20.90;99.90;;;;;;5071343;28;19931;-49
2022/09/06 02:17:55;;;;;;;;;;;20.80;99.90;;;;;;5071116;28;19920;-47
2022/09/06 02:20:23;;;;;;;;;;;20.90;99.90;;;;;;5071252;28;19921;-50
2022/09/06 02:22:50;;;;;;;;;;;20.80;99.90;;;;;;5070261;28;19978;-47
2022/09/06 02:25:20;;;;;;;;;;;20.80;99.90;;;;;;5071117;28;19923;-50
2022/09/06 02:27:46;;;;;;;;;;;20.70;99.90;;;;;;5070504;28;20326;-47
2022/09/06 02:30:11;;;;;;;;;;;20.80;99.90;;;;;;5071287;28;19924;-51
2022/09/06 02:32:42;;;;;;;;;;;20.80;99.90;;;;;;5071307;28;19916;-47
2022/09/06 02:35:11;;;;;;;;;;;20.90;99.90;;;;;;5071259;28;19924;-50
2022/09/06 02:37:36;;;;;;;;;;;20.80;99.90;;;;;;5070590;28;19922;-49
2022/09/06 02:40:02;;;;;;;;;;;20.80;99.90;;;;;;5070626;28;20019;-50
2022/09/06 02:42:28;;;;;;;;;;;20.80;99.90;;;;;;5071246;28;19916;-49
2022/09/06 02:44:53;;;;;;;;;;;20.80;99.90;;;;;;5069432;28;20288;-47
2022/09/06 02:47:19;;;;;;;;;;;20.80;99.90;;;;;;5070642;28;20360;-50
2022/09/06 02:49:44;;;;;;;;;;;20.80;99.90;;;;;;5070319;28;19927;-47
2022/09/06 02:52:10;;;;;;;;;;;20.80;99.90;;;;;;5069742;28;19927;-49
2022/09/06 02:54:36;;;;;;;;;;;20.70;99.90;;;;;;5071041;28;20007;-46
2022/09/06 02:57:01;;;;;;;;;;;20.60;99.90;;;;;;5068621;28;20143;-48
2022/09/06 02:59:27;;;;;;;;;;;20.60;99.90;;;;;;5070654;28;19927;-47
2022/09/06 03:01:53;;;;;;;;;;;20.50;99.90;;;;;;5069440;28;19978;-48
2022/09/06 03:04:18;;;;;;;;;;;20.50;99.90;;;;;;5070582;28;19927;-48
2022/09/06 03:06:44;;;;;;;;;;;20.30;99.90;;;;;;5070192;28;19916;-49
2022/09/06 03:09:09;;;;;;;;;;;20.30;99.90;;;;;;5069729;28;20017;-47
2022/09/06 03:11:35;;;;;;;;;;;20.20;99.90;;;;;;5068764;28;19923;-49
2022/09/06 03:14:01;;;;;;;;;;;20.20;99.90;;;;;;5070385;28;19923;-51
2022/09/06 03:16:26;;;;;;;;;;;20.20;99.90;;;;;;5070074;28;20017;-48
2022/09/06 03:18:52;;;;;;;;;;;20.30;99.90;;;;;;5070504;28;20359;-48
2022/09/06 03:21:17;;;;;;;;;;;20.20;99.90;;;;;;5070256;28;20518;-48
2022/09/06 03:23:44;;;;;;;;;;;20.20;99.90;;;;;;5070302;28;20414;-46
2022/09/06 03:26:10;;;;;;;;;;;20.20;99.90;;;;;;5069955;28;19920;-47
2022/09/06 03:28:35;;;;;;;;;;;20.30;99.90;;;;;;5069844;28;19970;-50
2022/09/06 03:31:01;;;;;;;;;;;20.30;99.90;;;;;;5070148;28;20342;-52
2022/09/06 03:33:26;;;;;;;;;;;20.20;99.90;;;;;;5069030;28;20421;-49
2022/09/06 03:35:54;;;;;;;;;;;20.30;99.90;;;;;;5069778;28;19925;-50
2022/09/06 03:38:20;;;;;;;;;;;20.20;99.90;;;;;;5068930;28;20369;-48
2022/09/06 03:40:46;;;;;;;;;;;20.20;99.90;;;;;;5069857;28;20028;-48
2022/09/06 03:43:12;;;;;;;;;;;20.20;99.90;;;;;;5070159;28;19997;-51
2022/09/06 03:45:38;;;;;;;;;;;20.20;99.90;;;;;;5069403;28;19956;-49
2022/09/06 03:48:03;;;;;;;;;;;20.10;99.90;;;;;;5068517;28;19927;-49
2022/09/06 03:50:29;;;;;;;;;;;20.10;99.90;;;;;;5069757;28;19924;-48
2022/09/06 03:52:54;;;;;;;;;;;20.10;99.90;;;;;;5069437;28;20273;-46
2022/09/06 03:55:20;;;;;;;;;;;20.10;99.90;;;;;;5067824;28;19920;-47
2022/09/06 03:57:46;;;;;;;;;;;20.00;99.90;;;;;;5069361;28;19916;-48
2022/09/06 04:00:11;;;;;;;;;;;20.00;99.90;;;;;;5069624;28;20035;-46
2022/09/06 04:02:37;;;;;;;;;;;19.90;99.90;;;;;;5070102;28;19936;-50
2022/09/06 04:05:03;;;;;;;;;;;19.90;99.90;;;;;;5069667;28;19920;-45
2022/09/06 04:07:29;;;;;;;;;;;19.80;99.90;;;;;;5069527;28;19916;-48
2022/09/06 04:09:54;;;;;;;;;;;19.70;99.90;;;;;;5069831;28;20363;-48
2022/09/06 04:12:20;;;;;;;;;;;19.70;99.90;;;;;;5069613;28;19946;-48
2022/09/06 04:14:45;;;;;;;;;;;19.70;99.90;;;;;;5069654;28;19923;-47
2022/09/06 04:17:13;;;;;;;;;;;19.70;99.90;;;;;;5068501;28;19972;-47
2022/09/06 04:19:38;;;;;;;;;;;19.60;99.90;;;;;;5070174;28;20417;-48
2022/09/06 04:22:04;;;;;;;;;;;19.60;99.90;;;;;;5073635;28;19920;-46
2022/09/06 04:24:29;;;;;;;;;;;19.60;99.90;;;;;;5073912;28;19920;-50
2022/09/06 04:26:55;;;;;;;;;;;19.50;99.90;;;;;;5073427;28;19927;-49
2022/09/06 04:29:20;;;;;;;;;;;19.50;99.90;;;;;;5073194;28;19923;-48
2022/09/06 04:31:46;;;;;;;;;;;19.50;99.90;;;;;;5073771;28;19920;-47
2022/09/06 04:34:12;;;;;;;;;;;19.40;99.90;;;;;;5073302;28;20385;-46
2022/09/06 04:36:37;;;;;;;;;;;19.40;99.90;;;;;;5072796;28;19973;-49
2022/09/06 04:39:04;;;;;;;;;;;19.40;99.90;;;;;;5073827;28;19923;-48
2022/09/06 04:41:29;;;;;;;;;;;19.40;99.90;;;;;;5073615;28;19927;-47
2022/09/06 04:43:55;;;;;;;;;;;19.40;99.90;;;;;;5073554;28;20351;-49
2022/09/06 04:46:22;;;;;;;;;;;19.30;99.90;;;;;;5072841;28;19960;-47
2022/09/06 04:48:48;;;;;;;;;;;19.20;99.90;;;;;;5073236;28;20399;-49
2022/09/06 04:51:14;;;;;;;;;;;19.20;99.90;;;;;;5073014;28;19918;-49
2022/09/06 04:53:40;;;;;;;;;;;19.10;99.90;;;;;;5072725;28;19920;-50
2022/09/06 04:56:05;;;;;;;;;;;19.20;99.90;;;;;;5073015;28;19925;-46
2022/09/06 04:58:31;;;;;;;;;;;19.20;99.90;;;;;;5072562;28;20371;-49
2022/09/06 05:00:56;;;;;;;;;;;19.10;99.90;;;;;;5073088;28;20351;-50
2022/09/06 05:03:22;;;;;;;;;;;19.10;99.90;;;;;;5073279;28;19917;-48
2022/09/06 05:05:47;;;;;;;;;;;19.10;99.90;;;;;;5071909;28;20354;-49
2022/09/06 05:08:13;;;;;;;;;;;19.10;99.90;;;;;;5073061;28;19999;-48
2022/09/06 05:10:39;;;;;;;;;;;19.00;99.90;;;;;;5072849;28;20234;-50
2022/09/06 05:13:04;;;;;;;;;;;19.00;99.90;;;;;;5071395;28;19963;-50
2022/09/06 05:15:30;;;;;;;;;;;19.00;99.90;;;;;;5072088;28;20337;-49
2022/09/06 05:18:05;;;;;;;;;;;19.00;99.90;;;;;;5072330;28;19926;-52
2022/09/06 05:20:31;;;;;;;;;;;19.00;99.90;;;;;;5072366;28;19966;-50
2022/09/06 05:22:56;;;;;;;;;;;18.90;99.90;;;;;;5072568;28;19920;-48
2022/09/06 05:25:22;;;;;;;;;;;19.00;99.90;;;;;;5071991;28;19974;-48
2022/09/06 05:27:47;;;;;;;;;;;19.00;99.90;;;;;;5071783;28;19927;-48
2022/09/06 05:30:13;;;;;;;;;;;18.90;99.90;;;;;;5071054;28;19927;-47
2022/09/06 05:32:39;;;;;;;;;;;18.90;99.90;;;;;;5071522;28;20007;-46
2022/09/06 05:35:04;;;;;;;;;;;18.90;99.90;;;;;;5072257;28;19924;-47
2022/09/06 05:37:30;;;;;;;;;;;18.80;99.90;;;;;;5071670;28;20290;-45
2022/09/06 05:39:58;;;;;;;;;;;18.90;99.90;;;;;;5071180;28;19916;-45
2022/09/06 05:42:24;;;;;;;;;;;18.90;99.90;;;;;;5072316;28;20021;-49
2022/09/06 05:44:49;;;;;;;;;;;18.80;99.90;;;;;;5072012;28;20367;-46
2022/09/06 05:47:15;;;;;;;;;;;18.80;99.90;;;;;;5071584;28;19924;-46
2022/09/06 05:49:41;;;;;;;;;;;18.80;99.90;;;;;;5070521;28;19959;-47
2022/09/06 05:52:06;;;;;;;;;;;18.70;99.90;;;;;;5072290;28;19916;-51
2022/09/06 05:54:32;;;;;;;;;;;18.80;99.90;;;;;;5070399;28;19986;-48
2022/09/06 05:56:58;;;;;;;;;;;18.70;99.90;;;;;;5071510;28;20264;-50
2022/09/06 05:59:23;;;;;;;;;;;18.70;99.90;;;;;;5071556;28;19920;-48
2022/09/06 06:01:50;;;;;;;;;;;18.70;99.90;;;;;;5071680;28;20015;-50
2022/09/06 06:04:17;;;;;;;;;;;18.60;99.90;;;;;;5071685;28;20015;-47
2022/09/06 06:06:43;;;;;;;;;;;18.60;99.90;;;;;;5071452;28;19960;-49
2022/09/06 06:09:09;;;;;;;;;;;18.60;99.90;;;;;;5071780;28;19924;-49
2022/09/06 06:11:34;;;;;;;;;;;18.60;99.90;;;;;;5071739;28;19920;-49
2022/09/06 06:14:01;;;;;;;;;;;18.60;99.90;;;;;;5071348;28;19916;-51
2022/09/06 06:16:26;;;;;;;;;;;18.60;99.90;;;;;;5071279;28;19969;-50
2022/09/06 06:18:52;;;;;;;;;;;18.70;99.90;;;;;;5071103;28;19920;-47
2022/09/06 06:21:21;;;;;;;;;;;18.70;99.90;;;;;;5071667;28;20011;-50
2022/09/06 06:23:52;;;;;;;;;;;18.70;99.90;;;;;;5071507;28;19972;-50
2022/09/06 06:26:18;;;;;;;;;;;18.60;99.90;;;;;;5071185;28;19923;-48
2022/09/06 06:28:44;;;;;;;;;;;18.70;99.90;;;;;;5069445;28;20010;-50
2022/09/06 06:31:10;;;;;;;;;;;18.80;99.90;;;;;;5071453;28;20364;-47
2022/09/06 06:33:37;;;;;;;;;;;18.80;99.90;;;;;;5070950;28;20349;-48
2022/09/06 06:36:04;;;;;;;;;;;18.80;99.90;;;;;;5069318;28;19960;-46
2022/09/06 06:38:31;;;;;;;;;;;18.80;99.90;;;;;;5070849;28;20319;-48
2022/09/06 06:40:56;;;;;;;;;;;18.90;99.90;;;;;;5071217;28;19917;-48
2022/09/06 06:43:22;;;;;;;;;;;18.90;99.90;;;;;;5071014;28;19923;-48
2022/09/06 06:45:48;;;;;;;;;;;18.90;99.90;;;;;;5071167;28;19928;-45
2022/09/06 06:48:14;;;;;;;;;;;19.00;99.90;;;;;;5069514;28;19967;-52
2022/09/06 06:50:40;;;;;;;;;;;18.90;99.90;;;;;;5069214;28;19975;-48
2022/09/06 06:53:05;;;;;;;;;;;18.90;99.90;;;;;;5070730;28;19927;-47
2022/09/06 06:55:31;;;;;;;;;;;19.00;99.90;;;;;;5069071;28;19969;-49
2022/09/06 06:57:58;;;;;;;;;;;19.00;99.90;;;;;;5069907;28;20011;-49
2022/09/06 07:00:24;;;;;;;;;;;19.10;99.90;;;;;;5070550;28;19923;-50
2022/09/06 07:02:49;;;;;;;;;;;19.10;99.90;;;;;;5069237;28;19924;-50
2022/09/06 07:05:15;;;;;;;;;;;19.20;99.90;;;;;;5070685;28;19973;-49
2022/09/06 07:07:40;;;;;;;;;;;19.20;99.90;;;;;;5070249;28;20017;-49
2022/09/06 07:10:06;;;;;;;;;;;19.30;99.90;;;;;;5070558;28;20045;-50
2022/09/06 07:12:31;;;;;;;;;;;19.30;99.90;;;;;;5070700;28;19916;-49
2022/09/06 07:14:57;;;;;;;;;;;19.20;99.90;;;;;;5070461;28;19923;-51
2022/09/06 07:17:22;;;;;;;;;;;19.30;99.90;;;;;;5070204;28;19927;-49
2022/09/06 07:19:48;;;;;;;;;;;19.40;99.90;;;;;;5070133;28;19932;-46
2022/09/06 07:22:13;;;;;;;;;;;19.40;99.90;;;;;;5070333;28;19916;-47
2022/09/06 07:24:40;;;;;;;;;;;19.60;99.90;;;;;;5070319;28;20050;-49
2022/09/06 07:27:05;;;;;;;;;;;19.70;99.90;;;;;;5070125;28;19923;-49
2022/09/06 07:29:31;;;;;;;;;;;19.80;99.90;;;;;;5069565;28;20411;-50
2022/09/06 07:31:58;;;;;;;;;;;19.80;99.90;;;;;;5070384;28;20308;-51
2022/09/06 07:34:26;;;;;;;;;;;19.90;99.90;;;;;;5070132;28;19966;-47
2022/09/06 07:36:52;;;;;;;;;;;20.00;99.90;;;;;;5070172;28;20309;-49
2022/09/06 07:39:18;;;;;;;;;;;20.10;99.90;;;;;;5068894;28;20450;-50
2022/09/06 07:41:43;;;;;;;;;;;20.20;99.90;;;;;;5068957;28;20007;-49
2022/09/06 07:44:09;;;;;;;;;;;20.20;99.90;;;;;;5051847;28;19981;-52
2022/09/06 07:46:35;;;;;;;;;;;20.20;99.90;;;;;;5069403;28;20382;-48
2022/09/06 07:49:02;;;;;;;;;;;20.30;99.90;;;;;;5070095;28;19928;-51
2022/09/06 07:51:28;;;;;;;;;;;20.30;99.90;;;;;;5069738;28;19923;-49
2022/09/06 07:53:56;;;;;;;;;;;20.50;99.90;;;;;;5068645;28;20352;-49
2022/09/06 07:56:23;;;;;;;;;;;20.60;99.90;;;;;;5069344;28;20315;-51
2022/09/06 07:58:49;;;;;;;;;;;20.70;99.90;;;;;;5069529;28;19916;-49
2022/09/06 08:01:14;;;;;;;;;;;20.80;99.90;;;;;;5069844;28;19917;-51
2022/09/06 08:03:40;;;;;;;;;;;21.00;99.90;;;;;;5069319;28;19921;-48
2022/09/06 08:06:06;;;;;;;;;;;21.00;99.90;;;;;;5069225;28;19941;-50
2022/09/06 08:08:31;;;;;;;;;;;21.10;99.90;;;;;;5069822;28;19920;-48
2022/09/06 08:10:57;;;;;;;;;;;21.30;99.90;;;;;;5069781;28;19916;-49
2022/09/06 08:13:22;;;;;;;;;;;21.40;99.90;;;;;;5070112;28;19924;-49
2022/09/06 08:15:48;;;;;;;;;;;21.50;99.90;;;;;;5069714;28;20287;-47
2022/09/06 08:18:13;;;;;;;;;;;21.70;99.90;;;;;;5069307;28;20371;-47
2022/09/06 08:20:39;;;;;;;;;;;21.70;99.90;;;;;;5069462;28;20055;-49
2022/09/06 08:23:10;;;;;;;;;;;21.80;99.90;;;;;;5069788;28;19955;-51
2022/09/06 08:25:36;;;;;;;;;;;21.90;99.90;;;;;;5069667;28;19916;-47
2022/09/06 08:28:01;;;;;;;;;;;22.10;99.90;;;;;;5067724;28;19924;-48
2022/09/06 08:30:28;;;;;;;;;;;22.10;99.90;;;;;;5069689;28;20651;-49
2022/09/06 08:32:55;;;;;;;;;;;22.20;99.90;;;;;;5069356;28;19917;-48
2022/09/06 08:35:21;;;;;;;;;;;22.30;99.90;;;;;;5069616;28;20279;-47
2022/09/06 08:37:47;;;;;;;;;;;22.40;99.90;;;;;;5069028;28;19917;-46
2022/09/06 08:40:19;;;;;;;;;;;22.60;99.90;;;;;;5069386;28;20006;-49
2022/09/06 08:42:45;;;;;;;;;;;22.70;99.90;;;;;;5068871;28;19931;-47
2022/09/06 08:45:14;;;;;;;;;;;22.80;99.90;;;;;;5069227;28;20011;-48
2022/09/06 08:47:39;;;;;;;;;;;22.90;99.90;;;;;;5069251;28;19920;-49
2022/09/06 08:50:05;;;;;;;;;;;23.00;99.90;;;;;;5068869;28;19931;-51
2022/09/06 08:52:40;;;;;;;;;;;23.10;99.90;;;;;;5069377;28;19924;-48
2022/09/06 08:55:32;;;;;;;;;;;23.20;99.90;;;;;;5068515;28;19917;-49
2022/09/06 08:58:30;;;;;;;;;;;23.30;99.90;;;;;;5052005;28;20355;-48
2022/09/06 09:01:08;;;;;;;;;;;23.40;99.90;;;;;;5045573;28;19931;-46
2022/09/06 09:03:37;;;;;;;;;;;23.60;99.90;;;;;;5069356;28;19982;-50
2022/09/06 09:06:05;;;;;;;;;;;23.70;99.90;;;;;;5069093;28;19928;-47
2022/09/06 09:08:33;;;;;;;;;;;23.90;99.90;;;;;;5071994;28;19924;-47
2022/09/06 09:11:03;;;;;;;;;;;24.00;99.90;;;;;;5072999;28;20034;-50
2022/09/06 09:13:38;;;;;;;;;;;24.20;99.90;;;;;;5072627;28;19923;-51
2022/09/06 09:16:04;;;;;;;;;;;24.30;99.90;;;;;;5072402;28;19920;-46
2022/09/06 09:18:32;;;;;;;;;;;24.30;99.90;;;;;;5072780;28;19924;-47
2022/09/06 09:20:57;;;;;;;;;;;24.40;99.90;;;;;;5072479;28;19916;-49
2022/09/06 09:23:23;;;;;;;;;;;24.50;99.90;;;;;;5072151;28;19926;-49
2022/09/06 09:25:51;;;;;;;;;;;24.60;99.90;;;;;;5072707;28;19916;-46
2022/09/06 09:28:19;;;;;;;;;;;24.70;99.90;;;;;;5072005;28;20373;-51
2022/09/06 09:30:51;;;;;;;;;;;24.70;99.90;;;;;;5072256;28;19959;-50
2022/09/06 09:33:37;;;;;;;;;;;24.70;99.90;;;;;;5069877;28;19926;-48
2022/09/06 09:36:12;;;;;;;;;;;24.70;99.90;;;;;;5071931;28;19975;-49
2022/09/06 09:38:48;;;;;;;;;;;24.80;99.90;;;;;;5072541;28;19966;-46
2022/09/06 09:41:31;;;;;;;;;;;25.00;99.90;;;;;;5072508;28;19920;-46
2022/09/06 09:44:01;;;;;;;;;;;25.00;99.20;;;;;;5071986;28;20291;-49
2022/09/06 09:46:29;;;;;;;;;;;25.30;99.70;;;;;;5071837;28;19920;-46
2022/09/06 09:49:06;;;;;;;;;;;25.20;98.10;;;;;;5072322;28;19981;-45
2022/09/06 09:51:33;;;;;;;;;;;25.20;97.80;;;;;;5072059;28;19916;-47
2022/09/06 09:54:00;;;;;;;;;;;25.30;97.70;;;;;;5071615;28;19947;-47
2022/09/06 09:56:29;;;;;;;;;;;25.20;97.10;;;;;;5071736;28;20451;-47
2022/09/06 09:58:55;;;;;;;;;;;25.40;96.60;;;;;;5071345;28;19939;-49
2022/09/06 10:01:24;;;;;;;;;;;25.50;96.00;;;;;;5071886;28;19922;-46
2022/09/06 10:03:50;;;;;;;;;;;25.50;95.40;;;;;;5071944;28;19924;-49
2022/09/06 10:06:24;;;;;;;;;;;25.60;95.00;;;;;;5070815;28;19939;-48
2022/09/06 10:08:50;;;;;;;;;;;25.60;95.40;;;;;;5072027;28;20305;-50
2022/09/06 10:11:35;;;;;;;;;;;25.60;95.60;;;;;;5070025;28;19923;-51
2022/09/06 10:14:30;;;;;;;;;;;25.60;95.00;;;;;;5071810;28;19966;-51
2022/09/06 10:16:56;;;;;;;;;;;25.70;96.00;;;;;;5061651;28;19950;-51
2022/09/06 10:19:31;;;;;;;;;;;25.70;95.00;;;;;;5071078;28;19916;-47
2022/09/06 10:22:00;;;;;;;;;;;25.90;94.70;;;;;;5069944;28;19927;-48
2022/09/06 10:24:31;;;;;;;;;;;25.80;94.00;;;;;;5071288;28;20487;-51
2022/09/06 10:27:01;;;;;;;;;;;25.90;94.60;;;;;;5071474;28;19916;-48
2022/09/06 10:29:29;;;;;;;;;;;26.00;94.40;;;;;;5070729;28;19920;-49
2022/09/06 10:31:58;;;;;;;;;;;26.20;93.10;;;;;;5069578;28;19916;-51
2022/09/06 10:34:23;;;;;;;;;;;26.20;93.40;;;;;;5071635;28;19946;-51
2022/09/06 10:36:51;;;;;;;;;;;26.30;93.20;;;;;;5070332;28;19928;-50
2022/09/06 10:39:32;;;;;;;;;;;26.30;93.10;;;;;;5070929;28;19999;-50
2022/09/06 10:42:06;;;;;;;;;;;26.30;93.70;;;;;;5071085;28;19916;-50
2022/09/06 10:44:38;;;;;;;;;;;26.50;94.40;;;;;;5071019;28;19985;-48
2022/09/06 10:47:09;;;;;;;;;;;26.50;92.90;;;;;;5070562;28;20356;-50
2022/09/06 10:49:36;;;;;;;;;;;26.70;93.20;;;;;;5069772;28;20015;-50
2022/09/06 10:52:03;;;;;;;;;;;26.70;92.50;;;;;;5070761;28;19990;-48
2022/09/06 10:54:31;;;;;;;;;;;26.90;91.60;;;;;;5070864;28;20326;-49
2022/09/06 10:57:00;;;;;;;;;;;27.00;91.90;;;;;;5070535;28;19920;-48
2022/09/06 10:59:29;;;;;;;;;;;27.10;93.10;;;;;;5068588;28;19917;-48
2022/09/06 11:02:10;;;;;;;;;;;27.40;92.30;;;;;;5070901;28;20016;-46
2022/09/06 11:04:37;;;;;;;;;;;27.40;91.60;;;;;;5070876;28;20271;-50
2022/09/06 11:07:05;;;;;;;;;;;27.60;91.10;;;;;;5070162;28;19917;-49
2022/09/06 11:09:30;;;;;;;;;;;27.60;90.60;;;;;;5070645;28;19955;-48
2022/09/06 11:12:02;;;;;;;;;;;27.40;90.40;;;;;;5070585;28;20360;-51
2022/09/06 11:14:28;;;;;;;;;;;27.30;91.50;;;;;;5070538;28;20398;-51
2022/09/06 11:16:58;;;;;;;;;;;27.30;91.60;;;;;;5068727;28;19924;-51
2022/09/06 11:19:27;;;;;;;;;;;27.50;92.20;;;;;;5070381;28;20421;-48
2022/09/06 11:21:56;;;;;;;;;;;27.70;91.30;;;;;;5070351;28;19927;-49
2022/09/06 11:24:44;;;;;;;;;;;27.80;90.20;;;;;;5070421;28;19920;-48
2022/09/06 11:27:13;;;;;;;;;;;27.80;90.10;;;;;;5069657;28;19972;-45
2022/09/06 11:29:40;;;;;;;;;;;27.80;89.20;;;;;;5069077;28;20007;-50
2022/09/06 11:32:25;;;;;;;;;;;28.20;90.20;;;;;;5070415;28;19923;-49
2022/09/06 11:34:56;;;;;;;;;;;28.30;88.00;;;;;;5069913;28;19916;-51
2022/09/06 11:37:41;;;;;;;;;;;28.20;88.60;;;;;;5069664;28;19920;-45
2022/09/06 11:40:17;;;;;;;;;;;28.30;87.70;;;;;;5069896;28;19920;-49
2022/09/06 11:42:43;;;;;;;;;;;28.40;88.30;;;;;;5070361;28;20003;-48
2022/09/06 11:45:08;;;;;;;;;;;28.60;88.50;;;;;;5069965;28;20324;-48
2022/09/06 11:47:37;;;;;;;;;;;28.90;87.20;;;;;;5068575;28;19922;-49
2022/09/06 11:50:21;;;;;;;;;;;29.00;87.30;;;;;;5069682;28;19998;-48
2022/09/06 11:52:59;;;;;;;;;;;29.10;86.60;;;;;;5069996;28;19965;-49
2022/09/06 11:55:44;;;;;;;;;;;29.20;88.20;;;;;;5069885;28;19916;-50
2022/09/06 11:58:16;;;;;;;;;;;29.40;85.70;;;;;;5068501;28;19956;-49
2022/09/06 12:00:43;;;;;;;;;;;29.40;84.80;;;;;;5069970;28;19916;-50
2022/09/06 12:03:28;;;;;;;;;;;29.20;84.60;;;;;;5070049;28;19962;-49
2022/09/06 12:06:12;;;;;;;;;;;29.80;85.60;;;;;;5069339;28;19959;-48
2022/09/06 12:08:38;;;;;;;;;;;29.30;85.20;;;;;;5069622;28;19921;-50
2022/09/06 12:11:24;;;;;;;;;;;28.90;85.10;;;;;;5068594;28;19916;-46
2022/09/06 12:13:54;;;;;;;;;;;28.90;85.10;;;;;;5061725;28;19993;-49
2022/09/06 12:16:20;;;;;;;;;;;28.90;85.20;;;;;;5069567;28;19978;-49
2022/09/06 12:18:46;;;;;;;;;;;29.40;84.70;;;;;;5068400;28;19921;-51
2022/09/06 12:21:30;;;;;;;;;;;29.10;85.10;;;;;;5070058;28;19920;-49
2022/09/06 12:23:56;;;;;;;;;;;29.10;85.20;;;;;;5068283;28;19920;-50
2022/09/06 12:26:40;;;;;;;;;;;29.10;84.60;;;;;;5067881;28;19916;-50
2022/09/06 12:29:09;;;;;;;;;;;29.20;84.40;;;;;;5068948;28;19917;-52
2022/09/06 12:31:39;;;;;;;;;;;29.70;86.80;;;;;;5069750;28;20422;-48
2022/09/06 12:34:06;;;;;;;;;;;30.00;84.80;;;;;;5069507;28;19925;-48
2022/09/06 12:36:32;;;;;;;;;;;29.60;84.90;;;;;;5067812;28;19928;-49
2022/09/06 12:38:59;;;;;;;;;;;29.90;85.20;;;;;;5069283;28;19965;-49
2022/09/06 12:41:26;;;;;;;;;;;29.70;84.30;;;;;;5071190;28;20291;-48
2022/09/06 12:43:52;;;;;;;;;;;29.90;84.40;;;;;;5073416;28;20489;-48
2022/09/06 12:46:17;;;;;;;;;;;30.10;82.90;;;;;;5071611;28;19917;-47
2022/09/06 12:48:57;;;;;;;;;;;30.40;83.00;;;;;;5072914;28;19924;-48
2022/09/06 12:51:24;;;;;;;;;;;30.60;83.90;;;;;;5073146;28;19917;-47
2022/09/06 12:53:57;;;;;;;;;;;30.80;82.80;;;;;;5070486;28;19934;-46
2022/09/06 12:56:25;;;;;;;;;;;30.80;81.80;;;;;;5072822;28;19927;-48
2022/09/06 12:58:51;;;;;;;;;;;30.70;81.30;;;;;;5072807;28;20283;-47
2022/09/06 13:01:21;;;;;;;;;;;30.70;80.20;;;;;;5072582;28;19917;-50
2022/09/06 13:03:52;;;;;;;;;;;30.90;81.60;;;;;;5072990;28;20254;-46
2022/09/06 13:06:19;;;;;;;;;;;30.70;82.40;;;;;;5071319;28;20002;-46
2022/09/06 13:08:47;;;;;;;;;;;30.10;81.10;;;;;;5072991;28;20350;-49
2022/09/06 13:11:15;;;;;;;;;;;29.90;82.10;;;;;;5072467;28;19920;-49
2022/09/06 13:13:45;;;;;;;;;;;29.90;82.40;;;;;;5072974;28;20007;-48
2022/09/06 13:16:17;;;;;;;;;;;30.20;83.50;;;;;;5072276;28;20012;-48
2022/09/06 13:18:42;;;;;;;;;;;30.40;81.50;;;;;;5072817;28;19978;-47
2022/09/06 13:21:13;;;;;;;;;;;30.60;80.30;;;;;;5072703;28;20378;-47
2022/09/06 13:23:46;;;;;;;;;;;31.20;81.80;;;;;;5072667;28;20037;-49
2022/09/06 13:26:12;;;;;;;;;;;31.20;81.20;;;;;;5072177;28;19925;-48
2022/09/06 13:28:38;;;;;;;;;;;31.70;79.60;;;;;;5072594;28;19916;-49
2022/09/06 13:31:13;;;;;;;;;;;31.40;79.10;;;;;;5072445;28;19993;-46
2022/09/06 13:33:39;;;;;;;;;;;31.40;80.60;;;;;;5072862;28;20314;-46
2022/09/06 13:36:11;;;;;;;;;;;31.70;80.80;;;;;;5072102;28;20402;-47
2022/09/06 13:38:36;;;;;;;;;;;31.60;79.70;;;;;;5072203;28;20364;-51
2022/09/06 13:41:03;;;;;;;;;;;31.60;78.60;;;;;;5072024;28;19974;-49
2022/09/06 13:43:32;;;;;;;;;;;30.70;80.60;;;;;;5072051;28;19967;-47
2022/09/06 13:46:08;;;;;;;;;;;30.70;81.00;;;;;;5071818;28;19920;-47
2022/09/06 13:48:34;;;;;;;;;;;30.60;82.00;;;;;;5071995;28;19916;-48
2022/09/06 13:51:02;;;;;;;;;;;30.40;81.80;;;;;;5072086;28;19920;-48
2022/09/06 13:53:27;;;;;;;;;;;31.00;81.30;;;;;;5070923;28;20339;-49
2022/09/06 13:55:53;;;;;;;;;;;31.40;80.50;;;;;;5072078;28;20011;-46
2022/09/06 13:58:18;;;;;;;;;;;31.80;80.40;;;;;;5071605;28;19916;-51
2022/09/06 14:00:45;;;;;;;;;;;31.90;79.90;;;;;;5071741;28;19999;-48
2022/09/06 14:03:14;;;;;;;;;;;32.00;80.30;;;;;;5071876;28;19920;-48
2022/09/06 14:05:40;;;;;;;;;;;32.30;78.80;;;;;;5071743;28;19931;-48
2022/09/06 14:08:06;;;;;;;;;;;32.00;78.20;;;;;;5070645;28;20368;-46
2022/09/06 14:10:31;;;;;;;;;;;32.20;78.80;;;;;;5071488;28;19921;-48
2022/09/06 14:12:57;;;;;;;;;;;31.90;77.90;;;;;;5070252;28;19946;-46
2022/09/06 14:15:23;;;;;;;;;;;31.90;77.60;;;;;;5071552;28;19923;-48
2022/09/06 14:17:48;;;;;;;;;;;32.20;79.40;;;;;;5071416;28;20013;-49
2022/09/06 14:20:14;;;;;;;;;;;32.00;78.50;;;;;;5071752;28;20061;-48
2022/09/06 14:22:39;;;;;;;;;;;31.80;79.00;;;;;;5071378;28;19924;-49